createdAt,value
2022-11-20T00:02:17.200Z,99447.84
2022-11-20T00:05:03.285Z,99438.19
2022-11-20T00:07:49.115Z,99438.94
2022-11-20T00:10:37.210Z,99436.41
2022-11-20T00:13:22.988Z,99441.34
2022-11-20T00:16:10.668Z,99443.13
2022-11-20T00:18:56.736Z,99444.25
2022-11-20T00:21:42.973Z,99445.06
2022-11-20T00:24:31.363Z,99459.78
2022-11-20T00:27:17.811Z,99459.13
2022-11-20T00:30:04.031Z,99443.28
2022-11-20T00:32:49.900Z,99442.16
2022-11-20T00:35:35.868Z,99444.09
2022-11-20T00:38:21.732Z,99458.72
2022-11-20T00:41:08.923Z,99466.28
2022-11-20T00:43:55.768Z,99457.34
2022-11-20T00:46:41.630Z,99455.34
2022-11-20T00:49:27.768Z,99436.41
2022-11-20T00:52:13.564Z,99428.09
2022-11-20T00:54:59.971Z,99433.97
2022-11-20T00:57:45.908Z,99431.84
2022-11-20T01:00:32.267Z,99425.31
2022-11-20T01:03:22.708Z,99433.56
2022-11-20T01:06:31.191Z,99434.53
2022-11-20T01:09:17.265Z,99437.19
2022-11-20T01:12:03.383Z,99449.34
2022-11-20T01:14:49.362Z,99445.09
2022-11-20T01:17:35.663Z,99450.34
2022-11-20T01:20:21.327Z,99454.63
2022-11-20T01:23:07.257Z,99463.56
2022-11-20T01:25:53.303Z,99467.28
2022-11-20T01:28:39.965Z,99466.44
2022-11-20T01:31:30.055Z,99455.19
2022-11-20T01:34:17.653Z,99448.06
2022-11-20T01:37:03.644Z,99450.69
2022-11-20T01:39:49.995Z,99447.66
2022-11-20T01:43:02.042Z,99457.16
2022-11-20T01:45:48.022Z,99436.97
2022-11-20T01:48:44.506Z,99443.56
2022-11-20T01:51:34.745Z,99436.50
2022-11-20T01:54:22.722Z,99430.47
2022-11-20T01:57:09.616Z,99429.87
2022-11-20T01:59:56.020Z,99429.34
2022-11-20T02:02:43.600Z,99427.81
2022-11-20T02:05:32.129Z,99433.00
2022-11-20T02:08:17.975Z,99430.56
2022-11-20T02:11:03.639Z,99431.09
2022-11-20T02:13:49.735Z,99438.94
2022-11-20T02:16:38.272Z,99432.72
2022-11-20T02:19:26.105Z,99427.03
2022-11-20T02:22:14.198Z,99430.28
2022-11-20T02:25:00.116Z,99440.03
2022-11-20T02:27:45.887Z,99446.81
2022-11-20T02:30:31.808Z,99441.09
2022-11-20T02:33:17.813Z,99430.16
2022-11-20T02:36:03.809Z,99422.91
2022-11-20T02:38:50.039Z,99425.66
2022-11-20T02:41:36.784Z,99422.44
2022-11-20T02:44:23.109Z,99418.62
2022-11-20T02:47:09.487Z,99415.09
2022-11-20T02:49:55.761Z,99411.81
2022-11-20T02:52:41.679Z,99415.34
2022-11-20T02:55:27.777Z,99427.53
2022-11-20T02:58:13.433Z,99419.69
2022-11-20T03:00:59.881Z,99407.19
2022-11-20T03:03:45.634Z,99398.81
2022-11-20T03:06:31.328Z,99395.84
2022-11-20T03:09:17.382Z,99404.28
2022-11-20T03:12:03.678Z,99397.19
2022-11-20T03:14:53.039Z,99399.34
2022-11-20T03:17:39.459Z,99398.53
2022-11-20T03:20:25.363Z,99400.72
2022-11-20T03:23:11.216Z,99413.44
2022-11-20T03:25:57.037Z,99430.00
2022-11-20T03:28:43.777Z,99426.47
2022-11-20T03:31:30.806Z,99428.91
2022-11-20T03:34:16.684Z,99422.41
2022-11-20T03:37:02.506Z,99414.56
2022-11-20T03:39:48.799Z,99420.50
2022-11-20T03:42:47.003Z,99413.72
2022-11-20T03:45:33.316Z,99409.38
2022-11-20T03:48:19.343Z,99407.78
2022-11-20T03:51:09.125Z,99417.13
2022-11-20T03:53:55.933Z,99421.50
2022-11-20T03:56:41.957Z,99419.66
2022-11-20T03:59:27.824Z,99426.72
2022-11-20T04:02:14.191Z,99424.34
2022-11-20T04:05:00.477Z,99397.78
2022-11-20T04:07:46.260Z,99401.25
2022-11-20T04:10:32.215Z,99387.69
2022-11-20T04:13:18.120Z,99401.25
2022-11-20T04:16:04.146Z,99390.09
2022-11-20T04:18:56.385Z,99375.91
2022-11-20T04:21:42.823Z,99375.63
2022-11-20T04:24:28.627Z,99370.56
2022-11-20T04:27:14.844Z,99375.41
2022-11-20T04:30:00.817Z,99378.31
2022-11-20T04:32:46.990Z,99379.53
2022-11-20T04:35:34.929Z,99383.66
2022-11-20T04:38:21.088Z,99372.66
2022-11-20T04:41:07.812Z,99373.09
2022-11-20T04:43:54.890Z,99367.13
2022-11-20T04:46:41.109Z,99361.13
2022-11-20T04:49:27.100Z,99373.06
2022-11-20T04:52:12.955Z,99360.03
2022-11-20T04:54:59.122Z,99351.91
2022-11-20T04:57:44.924Z,99347.66
2022-11-20T05:00:30.754Z,99346.53
2022-11-20T05:03:16.426Z,99358.81
2022-11-20T05:06:04.124Z,99356.84
2022-11-20T05:08:49.880Z,99363.59
2022-11-20T05:11:35.919Z,99375.50
2022-11-20T05:14:21.835Z,99371.84
2022-11-20T05:17:10.712Z,99354.69
2022-11-20T05:19:56.538Z,99350.34
2022-11-20T05:22:43.175Z,99360.37
2022-11-20T05:25:28.894Z,99373.09
2022-11-20T05:28:15.264Z,99357.03
2022-11-20T05:31:07.373Z,99343.84
2022-11-20T05:33:53.567Z,99341.59
2022-11-20T05:36:39.567Z,99332.97
2022-11-20T05:39:25.683Z,99315.41
2022-11-20T05:42:30.287Z,99323.81
2022-11-20T05:45:16.228Z,99341.38
2022-11-20T05:48:01.996Z,99340.88
2022-11-20T05:50:48.705Z,99353.03
2022-11-20T05:53:34.898Z,99355.53
2022-11-20T05:56:21.340Z,99350.34
2022-11-20T05:59:07.354Z,99368.34
2022-11-20T06:01:53.420Z,99361.25
2022-11-20T06:04:39.707Z,99358.63
2022-11-20T06:07:25.648Z,99377.50
2022-11-20T06:10:12.091Z,99368.22
2022-11-20T06:13:00.774Z,99363.06
2022-11-20T06:15:53.516Z,99375.41
2022-11-20T06:18:39.286Z,99359.66
2022-11-20T06:21:25.697Z,99368.37
2022-11-20T06:24:11.651Z,99372.84
2022-11-20T06:26:57.868Z,99367.63
2022-11-20T06:29:43.701Z,99364.00
2022-11-20T06:32:29.951Z,99374.63
2022-11-20T06:35:15.956Z,99387.75
2022-11-20T06:38:01.681Z,99404.47
2022-11-20T06:40:47.467Z,99407.78
2022-11-20T06:43:33.929Z,99408.06
2022-11-20T06:46:19.924Z,99414.31
2022-11-20T06:49:06.838Z,99415.31
2022-11-20T06:51:52.306Z,99413.56
2022-11-20T06:54:38.139Z,99412.09
2022-11-20T06:57:23.935Z,99399.03
2022-11-20T07:00:10.404Z,99390.06
2022-11-20T07:02:56.176Z,99392.00
2022-11-20T07:05:42.440Z,99391.78
2022-11-20T07:08:28.296Z,99400.06
2022-11-20T07:11:14.974Z,99407.19
2022-11-20T07:14:00.968Z,99401.94
2022-11-20T07:16:47.278Z,99416.44
2022-11-20T07:19:33.095Z,99416.78
2022-11-20T07:22:19.403Z,99418.97
2022-11-20T07:25:05.459Z,99415.34
2022-11-20T07:27:51.728Z,99418.00
2022-11-20T07:30:37.528Z,99427.25
2022-11-20T07:33:23.866Z,99429.81
2022-11-20T07:36:09.915Z,99425.62
2022-11-20T07:38:56.020Z,99422.19
2022-11-20T07:41:41.992Z,99418.28
2022-11-20T07:44:28.183Z,99428.25
2022-11-20T07:47:13.957Z,99422.59
2022-11-20T07:50:00.235Z,99432.94
2022-11-20T07:52:46.106Z,99431.03
2022-11-20T07:55:31.975Z,99431.03
2022-11-20T07:58:17.929Z,99416.03
2022-11-20T08:01:07.766Z,99417.69
2022-11-20T08:03:53.947Z,99415.56
2022-11-20T08:06:39.942Z,99405.34
2022-11-20T08:09:25.758Z,99392.59
2022-11-20T08:12:36.569Z,99384.44
2022-11-20T08:15:22.894Z,99396.22
2022-11-20T08:21:16.392Z,99406.72
2022-11-20T08:24:01.984Z,99409.81
2022-11-20T08:26:48.243Z,99398.72
2022-11-20T08:29:34.154Z,99398.09
2022-11-20T08:32:20.473Z,99397.84
2022-11-20T08:35:06.498Z,99403.28
2022-11-20T08:37:52.364Z,99422.88
2022-11-20T08:40:38.173Z,99409.38
2022-11-20T08:43:24.100Z,99413.84
2022-11-20T08:46:10.088Z,99417.59
2022-11-20T08:48:56.217Z,99424.81
2022-11-20T08:51:42.553Z,99424.16
2022-11-20T08:54:28.685Z,99436.47
2022-11-20T08:57:14.507Z,99443.06
2022-11-20T09:00:08.542Z,99438.00
2022-11-20T09:02:55.356Z,99446.81
2022-11-20T09:05:41.875Z,99446.50
2022-11-20T09:08:28.196Z,99448.38
2022-11-20T09:11:14.337Z,99446.94
2022-11-20T09:14:01.024Z,99453.00
2022-11-20T09:16:47.458Z,99447.78
2022-11-20T09:22:40.607Z,99457.78
2022-11-20T09:25:26.331Z,99450.53
2022-11-20T09:28:12.503Z,99447.28
2022-11-20T09:30:58.372Z,99439.03
2022-11-20T09:33:44.395Z,99440.91
2022-11-20T09:36:30.451Z,99433.56
2022-11-20T09:39:16.828Z,99440.25
2022-11-20T09:42:02.719Z,99440.22
2022-11-20T09:45:00.979Z,99438.97
2022-11-20T09:47:56.302Z,99436.87
2022-11-20T09:50:54.371Z,99436.44
2022-11-20T09:53:59.245Z,99438.81
2022-11-20T09:56:46.512Z,99441.47
2022-11-20T09:59:31.939Z,99430.81
2022-11-20T10:02:23.847Z,99437.94
2022-11-20T10:05:15.605Z,99433.09
2022-11-20T10:08:21.263Z,99429.25
2022-11-20T10:11:11.966Z,99428.22
2022-11-20T10:14:01.880Z,99417.16
2022-11-20T10:17:00.623Z,99408.81
2022-11-20T10:19:49.662Z,99406.66
2022-11-20T10:22:48.056Z,99401.81
2022-11-20T10:25:43.563Z,99386.38
2022-11-20T10:28:52.754Z,99393.13
2022-11-20T10:32:01.636Z,99393.06
2022-11-20T10:34:50.169Z,99395.31
2022-11-20T10:37:37.046Z,99379.88
2022-11-20T10:40:26.403Z,99379.34
2022-11-20T10:43:47.953Z,99383.37
2022-11-20T10:46:38.535Z,99381.22
2022-11-20T10:49:24.336Z,99375.22
2022-11-20T10:52:29.905Z,99383.34
2022-11-20T10:55:15.392Z,99376.31
2022-11-20T10:58:03.256Z,99383.87
2022-11-20T11:00:49.351Z,99391.91
2022-11-20T11:03:35.662Z,99397.44
2022-11-20T11:06:35.685Z,99417.25
2022-11-20T11:09:22.815Z,99397.75
2022-11-20T11:12:11.931Z,99393.88
2022-11-20T11:14:58.708Z,99404.91
2022-11-20T11:17:48.093Z,99400.59
2022-11-20T11:20:34.164Z,99415.16
2022-11-20T11:23:35.564Z,99416.38
2022-11-20T11:26:25.299Z,99409.91
2022-11-20T11:29:16.556Z,99411.00
2022-11-20T11:32:05.733Z,99413.66
2022-11-20T11:35:01.915Z,99410.97
2022-11-20T11:37:49.268Z,99406.03
2022-11-20T11:40:35.771Z,99410.41
2022-11-20T11:43:42.416Z,99406.00
2022-11-20T11:46:34.806Z,99397.63
2022-11-20T11:49:21.249Z,99391.34
2022-11-20T11:52:20.551Z,99386.25
2022-11-20T11:55:11.643Z,99375.56
2022-11-20T11:58:00.879Z,99375.25
2022-11-20T12:00:58.500Z,99378.22
2022-11-20T12:03:45.568Z,99372.03
2022-11-20T12:06:32.481Z,99379.47
2022-11-20T12:09:18.626Z,99370.72
2022-11-20T12:12:12.592Z,99379.44
2022-11-20T12:14:58.495Z,99372.41
2022-11-20T12:17:44.254Z,99370.03
2022-11-20T12:20:32.075Z,99370.22
2022-11-20T12:23:19.356Z,99375.97
2022-11-20T12:26:07.798Z,99360.59
2022-11-20T12:29:05.755Z,99364.97
2022-11-20T12:31:54.665Z,99358.63
2022-11-20T12:34:54.257Z,99353.31
2022-11-20T12:37:43.742Z,99347.19
2022-11-20T12:40:32.462Z,99352.44
2022-11-20T12:43:40.349Z,99363.25
2022-11-20T12:46:28.953Z,99357.03
2022-11-20T12:49:24.351Z,99362.56
2022-11-20T12:52:10.587Z,99359.63
2022-11-20T12:54:59.585Z,99368.56
2022-11-20T12:58:03.879Z,99366.78
2022-11-20T13:01:36.461Z,99378.63
2022-11-20T13:04:33.731Z,99371.16
2022-11-20T13:07:19.955Z,99379.81
2022-11-20T13:10:11.576Z,99362.16
2022-11-20T13:13:09.898Z,99368.75
2022-11-20T13:15:57.382Z,99374.38
2022-11-20T13:18:43.766Z,99373.22
2022-11-20T13:21:36.980Z,99377.41
2022-11-20T13:24:27.800Z,99369.41
2022-11-20T13:27:13.574Z,99365.91
2022-11-20T13:30:01.419Z,99359.91
2022-11-20T13:32:54.986Z,99354.75
2022-11-20T13:35:55.182Z,99353.31
2022-11-20T13:38:42.107Z,99328.75
2022-11-20T13:41:36.443Z,99335.28
2022-11-20T13:44:25.449Z,99327.19
2022-11-20T13:47:21.712Z,99316.22
2022-11-20T13:50:09.685Z,99324.31
2022-11-20T13:53:04.946Z,99325.56
2022-11-20T13:55:51.271Z,99336.38
2022-11-20T13:58:37.364Z,99327.38
2022-11-20T14:01:27.600Z,99311.34
2022-11-20T14:04:19.518Z,99312.12
2022-11-20T14:07:06.493Z,99316.78
2022-11-20T14:09:53.780Z,99317.81
2022-11-20T14:12:39.668Z,99318.09
2022-11-20T14:15:33.110Z,99322.31
2022-11-20T14:18:24.903Z,99322.91
2022-11-20T14:21:10.809Z,99329.75
2022-11-20T14:24:06.357Z,99337.75
2022-11-20T14:26:52.602Z,99336.03
2022-11-20T14:29:38.657Z,99336.38
2022-11-20T14:32:25.915Z,99336.97
2022-11-20T14:35:15.064Z,99346.97
2022-11-20T14:38:01.647Z,99346.72
2022-11-20T14:40:47.507Z,99350.63
2022-11-20T14:43:34.200Z,99354.25
2022-11-20T14:46:19.891Z,99351.84
2022-11-20T14:49:06.343Z,99352.16
2022-11-20T14:52:01.958Z,99361.34
2022-11-20T14:55:00.510Z,99366.41
2022-11-20T14:57:46.377Z,99362.44
2022-11-20T15:00:33.582Z,99361.97
2022-11-20T15:03:19.610Z,99364.03
2022-11-20T15:06:06.356Z,99365.47
2022-11-20T15:08:52.995Z,99370.91
2022-11-20T15:11:39.083Z,99370.59
2022-11-20T15:14:25.541Z,99364.44
2022-11-20T15:17:11.815Z,99370.38
2022-11-20T15:19:57.984Z,99365.78
2022-11-20T15:22:44.056Z,99363.63
2022-11-20T15:25:30.022Z,99362.50
2022-11-20T15:28:31.292Z,99358.50
2022-11-20T15:31:18.452Z,99363.06
2022-11-20T15:34:06.047Z,99363.34
2022-11-20T15:36:52.042Z,99362.81
2022-11-20T15:39:37.838Z,99363.88
2022-11-20T15:42:23.720Z,99366.84
2022-11-20T15:45:10.267Z,99364.97
2022-11-20T15:47:56.323Z,99366.22
2022-11-20T15:50:44.954Z,99372.41
2022-11-20T15:53:31.042Z,99361.84
2022-11-20T15:56:17.485Z,99365.47
2022-11-20T15:59:03.235Z,99366.81
2022-11-20T16:01:50.283Z,99365.03
2022-11-20T16:04:36.356Z,99357.28
2022-11-20T16:07:22.342Z,99359.97
2022-11-20T16:10:08.895Z,99354.63
2022-11-20T16:13:14.134Z,99363.00
2022-11-20T16:16:00.897Z,99360.16
2022-11-20T16:18:46.663Z,99360.16
2022-11-20T16:21:32.913Z,99362.13
2022-11-20T16:24:18.937Z,99365.19
2022-11-20T16:27:05.303Z,99371.88
2022-11-20T16:29:51.060Z,99370.72
2022-11-20T16:32:37.019Z,99367.03
2022-11-20T16:35:22.823Z,99375.31
2022-11-20T16:38:09.027Z,99370.31
2022-11-20T16:41:00.787Z,99367.56
2022-11-20T16:43:53.741Z,99363.91
2022-11-20T16:46:40.955Z,99365.75
2022-11-20T16:49:27.117Z,99354.13
2022-11-20T16:52:13.047Z,99359.44
2022-11-20T16:54:59.523Z,99360.09
2022-11-20T16:57:45.291Z,99353.44
2022-11-20T17:00:31.265Z,99355.91
2022-11-20T17:03:18.042Z,99360.87
2022-11-20T17:06:11.422Z,99352.59
2022-11-20T17:09:00.072Z,99349.75
2022-11-20T17:11:46.281Z,99346.03
2022-11-20T17:14:32.137Z,99339.88
2022-11-20T17:17:17.975Z,99330.19
2022-11-20T17:20:03.985Z,99332.84
2022-11-20T17:22:50.361Z,99322.53
2022-11-20T17:25:36.509Z,99315.63
2022-11-20T17:28:22.997Z,99298.69
2022-11-20T17:31:10.734Z,99303.53
2022-11-20T17:33:59.673Z,99303.41
2022-11-20T17:36:46.443Z,99302.06
2022-11-20T17:39:32.435Z,99307.19
2022-11-20T17:42:27.388Z,99307.00
2022-11-20T17:45:13.749Z,99306.97
2022-11-20T17:47:59.431Z,99291.31
2022-11-20T17:50:45.423Z,99294.53
2022-11-20T17:53:35.165Z,99291.22
2022-11-20T17:56:53.571Z,99290.63
2022-11-20T17:59:39.601Z,99301.56
2022-11-20T18:02:25.835Z,99298.81
2022-11-20T18:05:12.054Z,99312.34
2022-11-20T18:07:57.855Z,99304.59
2022-11-20T18:10:44.218Z,99297.53
2022-11-20T18:13:50.098Z,99316.19
2022-11-20T18:16:37.937Z,99315.34
2022-11-20T18:19:26.035Z,99320.97
2022-11-20T18:22:15.677Z,99319.75
2022-11-20T18:25:02.456Z,99322.69
2022-11-20T18:27:48.741Z,99334.00
2022-11-20T18:30:34.702Z,99335.72
2022-11-20T18:33:25.438Z,99343.72
2022-11-20T18:36:14.972Z,99359.00
2022-11-20T18:39:01.823Z,99353.53
2022-11-20T18:42:06.468Z,99356.94
2022-11-20T18:44:53.796Z,99355.00
2022-11-20T18:47:40.277Z,99369.16
2022-11-20T18:50:26.517Z,99376.19
2022-11-20T18:53:12.513Z,99382.47
2022-11-20T18:55:58.794Z,99368.37
2022-11-20T18:58:44.664Z,99371.88
2022-11-20T19:01:30.560Z,99368.59
2022-11-20T19:04:16.868Z,99358.63
2022-11-20T19:07:03.110Z,99355.22
2022-11-20T19:09:50.019Z,99366.59
2022-11-20T19:12:36.257Z,99367.84
2022-11-20T19:15:22.377Z,99372.22
2022-11-20T19:18:08.377Z,99372.19
2022-11-20T19:20:54.308Z,99377.31
2022-11-20T19:23:40.591Z,99387.41
2022-11-20T19:26:26.194Z,99383.94
2022-11-20T19:29:14.628Z,99383.37
2022-11-20T19:32:00.555Z,99378.25
2022-11-20T19:34:46.945Z,99387.03
2022-11-20T19:37:33.474Z,99378.31
2022-11-20T19:40:19.885Z,99362.38
2022-11-20T19:43:05.645Z,99364.31
2022-11-20T19:45:51.546Z,99361.47
2022-11-20T19:48:38.018Z,99354.56
2022-11-20T19:51:29.817Z,99349.97
2022-11-20T19:54:15.923Z,99361.47
2022-11-20T19:57:02.057Z,99357.34
2022-11-20T19:59:47.811Z,99351.31
2022-11-20T20:02:34.284Z,99346.09
2022-11-20T20:05:20.678Z,99357.19
2022-11-20T20:08:06.600Z,99369.19
2022-11-20T20:10:56.639Z,99358.44
2022-11-20T20:13:45.369Z,99338.03
2022-11-20T20:16:31.504Z,99328.41
2022-11-20T20:19:17.491Z,99328.72
2022-11-20T20:22:03.345Z,99330.25
2022-11-20T20:24:49.095Z,99318.59
2022-11-20T20:27:36.744Z,99318.25
2022-11-20T20:30:22.439Z,99333.75
2022-11-20T20:33:08.663Z,99331.00
2022-11-20T20:35:54.575Z,99322.41
2022-11-20T20:38:41.067Z,99314.50
2022-11-20T20:41:26.519Z,99307.31
2022-11-20T20:44:31.184Z,99321.34
2022-11-20T20:47:16.735Z,99318.59
2022-11-20T20:50:03.382Z,99315.94
2022-11-20T20:52:48.994Z,99314.06
2022-11-20T20:55:35.721Z,99319.47
2022-11-20T20:58:21.284Z,99314.06
2022-11-20T21:01:08.746Z,99311.09
2022-11-20T21:03:55.241Z,99327.84
2022-11-20T21:06:41.293Z,99320.53
2022-11-20T21:09:27.279Z,99319.47
2022-11-20T21:12:13.036Z,99318.13
2022-11-20T21:14:59.061Z,99318.41
2022-11-20T21:17:45.458Z,99323.81
2022-11-20T21:20:49.985Z,99321.09
2022-11-20T21:23:36.303Z,99312.97
2022-11-20T21:26:22.232Z,99317.84
2022-11-20T21:29:08.547Z,99311.31
2022-11-20T21:31:54.700Z,99317.84
2022-11-20T21:34:41.062Z,99312.97
2022-11-20T21:37:27.057Z,99311.34
2022-11-20T21:40:12.957Z,99317.84
2022-11-20T21:42:58.824Z,99325.16
2022-11-20T21:45:44.704Z,99327.06
